createdAt,value
2019-03-28T00:02:16.928Z,28.70
2019-03-28T00:04:46.387Z,28.93
2019-03-28T00:07:14.820Z,30.07
2019-03-28T00:09:43.455Z,34.53
2019-03-28T00:12:11.955Z,29.63
2019-03-28T00:14:40.415Z,28.53
2019-03-28T00:17:08.979Z,32.23
2019-03-28T00:19:37.441Z,23.30
2019-03-28T00:22:06.251Z,28.07
2019-03-28T00:24:42.119Z,26.03
2019-03-28T00:27:10.685Z,31.73
2019-03-28T00:29:39.140Z,27.83
2019-03-28T00:32:07.591Z,31.93
2019-03-28T00:34:36.025Z,27.50
2019-03-28T00:37:07.455Z,31.03
2019-03-28T00:39:34.647Z,35.93
2019-03-28T00:42:03.221Z,37.50
2019-03-28T00:44:31.671Z,28.60
2019-03-28T00:47:00.168Z,30.50
2019-03-28T00:49:28.680Z,34.40
2019-03-28T00:51:57.112Z,30.10
2019-03-28T00:54:25.636Z,27.37
2019-03-28T00:56:54.057Z,28.00
2019-03-28T00:59:22.479Z,40.23
2019-03-28T01:01:50.988Z,28.23
2019-03-28T01:04:19.441Z,35.47
2019-03-28T01:06:47.864Z,26.57
2019-03-28T01:09:16.334Z,33.43
2019-03-28T01:11:44.782Z,29.70
2019-03-28T01:14:13.203Z,29.50
2019-03-28T01:16:41.658Z,33.87
2019-03-28T01:19:10.162Z,32.03
2019-03-28T01:21:38.859Z,34.47
2019-03-28T01:24:07.324Z,34.50
2019-03-28T01:26:35.769Z,33.30
2019-03-28T01:29:04.183Z,44.33
2019-03-28T01:31:32.639Z,26.33
2019-03-28T01:34:01.139Z,28.10
2019-03-28T01:36:29.589Z,42.40
2019-03-28T01:38:58.023Z,34.90
2019-03-28T01:41:26.451Z,24.07
2019-03-28T01:43:54.914Z,27.47
2019-03-28T01:46:23.367Z,38.53
2019-03-28T01:48:51.850Z,27.30
2019-03-28T01:51:20.307Z,32.27
2019-03-28T01:53:48.736Z,28.70
2019-03-28T01:56:17.189Z,26.57
2019-03-28T01:58:45.614Z,36.50
2019-03-28T02:01:14.155Z,34.80
2019-03-28T02:03:42.667Z,30.03
2019-03-28T02:06:11.111Z,39.93
2019-03-28T02:08:39.531Z,37.73
2019-03-28T02:11:08.084Z,35.23
2019-03-28T02:13:36.532Z,37.50
2019-03-28T02:16:04.951Z,32.03
2019-03-28T02:18:33.419Z,29.53
2019-03-28T02:21:01.849Z,43.73
2019-03-28T02:23:30.286Z,37.93
2019-03-28T02:25:58.750Z,31.50
2019-03-28T02:28:27.179Z,32.93
2019-03-28T02:30:55.616Z,38.23
2019-03-28T02:33:24.103Z,36.93
2019-03-28T02:35:52.567Z,41.90
2019-03-28T02:38:21.018Z,37.77
2019-03-28T02:40:49.446Z,38.63
2019-03-28T02:43:17.873Z,46.40
2019-03-28T02:45:46.339Z,53.43
2019-03-28T02:48:34.107Z,35.63
2019-03-28T02:51:03.740Z,35.40
2019-03-28T02:53:32.587Z,37.63
2019-03-28T02:56:01.032Z,38.40
2019-03-28T02:58:29.931Z,41.50
2019-03-28T03:00:58.386Z,38.23
2019-03-28T03:03:26.838Z,42.07
2019-03-28T03:05:55.298Z,50.83
2019-03-28T03:08:24.213Z,44.83
2019-03-28T03:10:53.180Z,39.27
2019-03-28T03:13:21.615Z,41.30
2019-03-28T03:15:50.040Z,42.00
2019-03-28T03:18:21.351Z,47.63
2019-03-28T03:20:48.648Z,43.83
2019-03-28T03:23:17.095Z,49.53
2019-03-28T03:25:45.571Z,46.13
2019-03-28T03:28:14.047Z,46.00
2019-03-28T03:30:42.484Z,41.33
2019-03-28T03:33:30.369Z,50.70
2019-03-28T03:35:58.784Z,44.87
2019-03-28T03:38:27.216Z,45.23
2019-03-28T03:40:55.674Z,44.00
2019-03-28T03:43:24.316Z,48.73
2019-03-28T03:45:52.756Z,51.30
2019-03-28T03:48:21.279Z,42.17
2019-03-28T03:50:49.776Z,44.30
2019-03-28T03:53:18.296Z,50.30
2019-03-28T03:55:46.848Z,48.17
2019-03-28T03:58:16.992Z,44.83
2019-03-28T04:00:45.436Z,40.90
2019-03-28T04:03:13.891Z,47.30
2019-03-28T04:05:42.341Z,45.33
2019-03-28T04:08:10.770Z,42.23
2019-03-28T04:10:39.547Z,44.73
2019-03-28T04:13:08.009Z,43.93
2019-03-28T04:15:37.923Z,45.00
2019-03-28T04:18:06.715Z,42.23
2019-03-28T04:20:35.158Z,40.10
2019-03-28T04:23:04.040Z,41.70
2019-03-28T04:25:32.809Z,43.40
2019-03-28T04:28:01.278Z,42.90
2019-03-28T04:30:29.706Z,43.73
2019-03-28T04:32:58.152Z,41.83
2019-03-28T04:35:26.631Z,47.17
2019-03-28T04:37:55.068Z,41.80
2019-03-28T04:40:23.523Z,61.47
2019-03-28T04:42:51.952Z,43.37
2019-03-28T04:45:20.399Z,40.33
2019-03-28T04:47:48.859Z,38.77
2019-03-28T04:50:36.653Z,43.57
2019-03-28T04:53:05.104Z,40.37
2019-03-28T04:55:33.549Z,41.10
2019-03-28T04:58:01.982Z,49.03
2019-03-28T05:00:30.426Z,39.90
2019-03-28T05:02:58.866Z,42.37
2019-03-28T05:05:27.319Z,44.23
2019-03-28T05:07:55.739Z,41.33
2019-03-28T05:10:24.200Z,47.97
2019-03-28T05:12:52.687Z,39.83
2019-03-28T05:15:21.151Z,43.57
2019-03-28T05:17:49.581Z,45.03
2019-03-28T05:20:18.007Z,42.20
2019-03-28T05:22:46.458Z,46.00
2019-03-28T05:25:15.080Z,44.87
2019-03-28T05:27:43.529Z,46.33
2019-03-28T05:30:13.158Z,53.40
2019-03-28T05:32:41.589Z,44.00
2019-03-28T05:35:10.485Z,42.00
2019-03-28T05:37:38.911Z,46.43
2019-03-28T05:40:07.912Z,47.17
2019-03-28T05:42:36.340Z,47.67
2019-03-28T05:45:06.241Z,46.83
2019-03-28T05:47:34.715Z,51.10
2019-03-28T05:50:03.418Z,48.17
2019-03-28T05:52:31.877Z,50.63
2019-03-28T05:55:00.724Z,60.40
2019-03-28T05:57:29.148Z,47.60
2019-03-28T05:59:57.575Z,46.10
2019-03-28T06:02:26.099Z,51.20
2019-03-28T06:04:54.619Z,45.40
2019-03-28T06:07:24.372Z,48.67
2019-03-28T06:09:52.808Z,49.53
2019-03-28T06:12:21.272Z,47.50
2019-03-28T06:14:49.700Z,45.93
2019-03-28T06:17:18.121Z,62.17
2019-03-28T06:19:46.716Z,60.27
2019-03-28T06:22:15.144Z,49.40
2019-03-28T06:24:43.746Z,53.17
2019-03-28T06:27:12.328Z,50.83
2019-03-28T06:29:40.775Z,55.77
2019-03-28T06:32:09.212Z,50.07
2019-03-28T06:34:37.668Z,56.37
2019-03-28T06:37:06.519Z,54.20
2019-03-28T06:39:36.582Z,64.13
2019-03-28T06:42:05.180Z,62.50
2019-03-28T06:44:33.627Z,50.90
2019-03-28T06:47:02.107Z,56.63
2019-03-28T06:49:30.645Z,58.13
2019-03-28T06:51:59.069Z,55.70
2019-03-28T06:54:27.540Z,52.53
2019-03-28T06:56:55.992Z,71.67
2019-03-28T06:59:36.516Z,57.17
2019-03-28T07:01:54.599Z,64.83
2019-03-28T07:04:23.059Z,65.97
2019-03-28T07:06:51.534Z,57.87
2019-03-28T07:09:20.011Z,78.80
2019-03-28T07:11:48.468Z,56.23
2019-03-28T07:14:16.937Z,61.70
2019-03-28T07:16:45.478Z,62.67
2019-03-28T07:19:13.984Z,62.93
2019-03-28T07:21:44.329Z,54.23
2019-03-28T07:24:13.008Z,58.13
2019-03-28T07:26:41.495Z,69.00
2019-03-28T07:29:09.950Z,64.17
2019-03-28T07:31:38.446Z,55.33
2019-03-28T07:34:06.903Z,59.07
2019-03-28T07:36:35.354Z,58.03
2019-03-28T07:39:05.404Z,57.37
2019-03-28T07:41:33.835Z,59.30
2019-03-28T07:44:02.379Z,59.77
2019-03-28T07:46:30.795Z,65.50
2019-03-28T07:48:59.253Z,51.80
2019-03-28T07:51:27.883Z,70.03
2019-03-28T07:53:56.636Z,64.40
2019-03-28T07:56:25.093Z,67.77
2019-03-28T07:58:53.568Z,59.83
2019-03-28T08:01:22.128Z,60.90
2019-03-28T08:03:57.747Z,47.60
2019-03-28T08:06:26.200Z,52.70
2019-03-28T08:08:54.628Z,53.17
2019-03-28T08:11:23.121Z,57.03
2019-03-28T08:13:51.612Z,62.33
2019-03-28T08:16:20.061Z,60.03
2019-03-28T08:18:48.491Z,52.73
2019-03-28T08:21:16.967Z,50.10
2019-03-28T08:23:45.491Z,57.23
2019-03-28T08:26:33.284Z,40.67
2019-03-28T08:29:01.776Z,48.63
2019-03-28T08:31:30.299Z,47.73
2019-03-28T08:34:18.713Z,54.50
2019-03-28T08:36:47.939Z,44.93
2019-03-28T08:39:17.331Z,45.03
2019-03-28T08:41:48.557Z,44.20
2019-03-28T08:44:15.962Z,49.57
2019-03-28T08:46:44.495Z,44.00
2019-03-28T08:49:12.949Z,48.07
2019-03-28T08:51:41.387Z,41.27
2019-03-28T08:54:09.844Z,40.63
2019-03-28T08:56:38.305Z,46.40
2019-03-28T08:59:06.945Z,45.20
2019-03-28T09:01:54.869Z,43.37
2019-03-28T09:04:23.334Z,34.77
2019-03-28T09:06:51.816Z,37.50
2019-03-28T09:09:21.267Z,41.50
2019-03-28T09:11:50.154Z,37.90
2019-03-28T09:14:18.593Z,39.10
2019-03-28T09:16:47.116Z,31.10
2019-03-28T09:19:15.615Z,27.87
2019-03-28T09:21:44.039Z,22.30
2019-03-28T09:24:12.516Z,24.80
2019-03-28T09:26:40.949Z,25.43
2019-03-28T09:29:09.433Z,29.10
2019-03-28T09:31:37.875Z,27.90
2019-03-28T09:34:06.312Z,32.73
2019-03-28T09:36:34.753Z,31.37
2019-03-28T09:39:04.618Z,28.13
2019-03-28T09:41:33.081Z,33.47
2019-03-28T09:44:01.520Z,35.10
2019-03-28T09:46:30.019Z,37.03
2019-03-28T09:48:58.481Z,38.73
2019-03-28T09:51:26.965Z,36.10
2019-03-28T09:53:55.429Z,38.03
2019-03-28T09:56:23.856Z,34.20
2019-03-28T09:58:52.312Z,43.40
2019-03-28T10:01:20.735Z,44.53
2019-03-28T10:03:49.277Z,37.07
2019-03-28T10:06:17.858Z,37.03
2019-03-28T10:08:46.289Z,36.47
2019-03-28T10:11:14.791Z,31.90
2019-03-28T10:13:43.249Z,30.03
2019-03-28T10:16:11.680Z,37.73
2019-03-28T10:18:40.124Z,32.83
2019-03-28T10:21:08.579Z,35.90
2019-03-28T10:23:39.744Z,42.93
2019-03-28T10:26:07.192Z,31.77
2019-03-28T10:28:35.647Z,41.90
2019-03-28T10:31:15.766Z,35.03
2019-03-28T10:33:34.329Z,34.27
2019-03-28T10:36:02.944Z,35.30
2019-03-28T10:38:31.395Z,42.10
2019-03-28T10:40:59.854Z,33.27
2019-03-28T10:43:28.318Z,28.63
2019-03-28T10:45:56.731Z,29.67
2019-03-28T10:48:25.201Z,37.20
2019-03-28T10:50:53.611Z,35.20
2019-03-28T10:53:22.047Z,35.43
2019-03-28T10:55:50.493Z,30.37
2019-03-28T10:58:19.676Z,30.83
2019-03-28T11:00:48.459Z,28.17
2019-03-28T11:03:16.911Z,28.57
2019-03-28T11:05:45.366Z,28.87
2019-03-28T11:08:13.894Z,28.43
2019-03-28T11:10:42.371Z,36.17
2019-03-28T11:13:10.800Z,35.93
2019-03-28T11:15:39.247Z,32.30
2019-03-28T11:18:07.755Z,26.33
2019-03-28T11:20:39.857Z,37.73
2019-03-28T11:23:07.258Z,29.60
2019-03-28T11:25:35.979Z,34.13
2019-03-28T11:28:04.415Z,29.00
2019-03-28T11:30:33.005Z,34.93
2019-03-28T11:33:01.457Z,38.37
2019-03-28T11:35:30.007Z,33.27
2019-03-28T11:37:58.428Z,34.47
2019-03-28T11:40:26.894Z,29.43
2019-03-28T11:42:55.321Z,30.00
2019-03-28T11:45:26.934Z,32.23
2019-03-28T11:47:53.996Z,30.77
2019-03-28T11:50:22.435Z,29.90
2019-03-28T11:52:50.884Z,30.83
2019-03-28T11:55:19.344Z,30.50
2019-03-28T11:57:47.800Z,43.93
2019-03-28T12:00:18.041Z,29.70
2019-03-28T12:02:46.469Z,33.80
2019-03-28T12:05:15.310Z,29.80
2019-03-28T12:07:43.809Z,30.93
2019-03-28T12:10:12.700Z,28.73
2019-03-28T12:12:41.200Z,31.90
2019-03-28T12:15:10.793Z,30.80
2019-03-28T12:17:39.263Z,33.17
2019-03-28T12:20:09.261Z,31.60
2019-03-28T12:22:37.776Z,28.70
2019-03-28T12:25:07.258Z,33.33
2019-03-28T12:27:35.796Z,42.20
2019-03-28T12:30:07.728Z,25.73
2019-03-28T12:32:36.447Z,37.33
2019-03-28T12:35:07.009Z,39.27
2019-03-28T12:37:36.699Z,31.07
2019-03-28T12:40:08.257Z,33.97
2019-03-28T12:42:36.843Z,29.10
2019-03-28T12:45:08.341Z,26.87
2019-03-28T12:47:42.734Z,47.30
2019-03-28T12:50:09.776Z,31.13
2019-03-28T12:52:38.439Z,35.43
2019-03-28T12:55:08.205Z,38.47
2019-03-28T12:57:36.648Z,32.23
2019-03-28T13:00:10.149Z,38.80
2019-03-28T13:02:38.793Z,32.40
2019-03-28T13:05:09.517Z,29.93
2019-03-28T13:07:38.127Z,34.73
2019-03-28T13:10:08.131Z,33.40
2019-03-28T13:12:37.718Z,31.00
2019-03-28T13:15:07.149Z,31.07
2019-03-28T13:17:35.578Z,28.70
2019-03-28T13:20:06.524Z,30.87
2019-03-28T13:22:34.981Z,31.33
2019-03-28T13:25:04.351Z,31.93
2019-03-28T13:27:34.637Z,31.23
2019-03-28T13:30:03.420Z,31.10
2019-03-28T13:32:51.185Z,30.40
2019-03-28T13:35:19.637Z,32.37
2019-03-28T13:37:48.077Z,35.50
2019-03-28T13:40:16.747Z,32.87
2019-03-28T13:42:45.178Z,34.33
2019-03-28T13:45:16.714Z,32.97
2019-03-28T13:47:45.126Z,35.90
2019-03-28T13:50:14.620Z,34.00
2019-03-28T13:52:43.085Z,29.67
2019-03-28T13:55:11.774Z,30.13
2019-03-28T13:57:43.248Z,31.13
2019-03-28T14:00:11.435Z,41.53
2019-03-28T14:02:40.163Z,32.37
2019-03-28T14:05:09.123Z,32.50
2019-03-28T14:07:37.571Z,37.87
2019-03-28T14:10:07.908Z,34.67
2019-03-28T14:12:36.366Z,38.70
2019-03-28T14:15:06.931Z,34.30
2019-03-28T14:17:35.440Z,32.47
2019-03-28T14:20:05.613Z,33.67
2019-03-28T14:22:34.223Z,33.13
2019-03-28T14:25:02.680Z,31.63
2019-03-28T14:27:31.172Z,39.03
2019-03-28T14:29:59.619Z,34.43
2019-03-28T14:32:28.636Z,37.60
2019-03-28T14:34:57.388Z,37.07
2019-03-28T14:37:25.812Z,40.00
2019-03-28T14:39:54.249Z,38.37
2019-03-28T14:42:22.697Z,31.80
2019-03-28T14:44:51.331Z,37.17
2019-03-28T14:47:19.765Z,35.73
2019-03-28T14:49:48.371Z,37.27
2019-03-28T14:52:17.002Z,34.73
2019-03-28T14:54:45.492Z,35.37
2019-03-28T14:57:15.383Z,34.40
2019-03-28T14:59:44.576Z,37.50
2019-03-28T15:02:13.066Z,38.50
2019-03-28T15:04:41.523Z,33.90
2019-03-28T15:07:10.115Z,33.80
2019-03-28T15:09:38.546Z,36.47
2019-03-28T15:12:07.066Z,31.30
2019-03-28T15:14:35.488Z,43.97
2019-03-28T15:17:04.073Z,35.23
2019-03-28T15:19:33.223Z,33.37
2019-03-28T15:22:02.086Z,34.20
2019-03-28T15:24:31.558Z,32.00
2019-03-28T15:27:01.093Z,34.47
2019-03-28T15:29:29.735Z,36.70
2019-03-28T15:31:58.182Z,32.43
2019-03-28T15:34:26.618Z,31.07
2019-03-28T15:36:55.072Z,35.83
2019-03-28T15:39:42.855Z,37.63
2019-03-28T15:42:11.299Z,30.27
2019-03-28T15:44:39.863Z,33.03
2019-03-28T15:47:08.314Z,34.00
2019-03-28T15:49:36.735Z,35.30
2019-03-28T15:52:05.471Z,31.57
2019-03-28T15:54:34.072Z,33.50
2019-03-28T15:57:02.749Z,33.23
2019-03-28T15:59:31.240Z,31.70
2019-03-28T16:02:00.074Z,31.30
2019-03-28T16:04:28.920Z,32.30
2019-03-28T16:06:57.408Z,33.07
2019-03-28T16:09:25.852Z,33.03
2019-03-28T16:12:02.641Z,32.97
2019-03-28T16:14:24.468Z,33.67
2019-03-28T16:16:52.891Z,31.90
2019-03-28T16:19:21.352Z,33.90
2019-03-28T16:21:49.780Z,32.20
2019-03-28T16:24:18.212Z,32.33
2019-03-28T16:26:46.651Z,31.07
2019-03-28T16:29:15.119Z,34.20
2019-03-28T16:31:43.641Z,37.50
2019-03-28T16:34:12.069Z,44.23
2019-03-28T16:36:40.483Z,36.10
2019-03-28T16:39:08.955Z,39.20
2019-03-28T16:41:37.676Z,38.53
2019-03-28T16:44:06.136Z,35.07
2019-03-28T16:46:35.025Z,32.93
2019-03-28T16:49:04.056Z,30.57
2019-03-28T16:51:32.660Z,31.37
2019-03-28T16:54:01.658Z,34.27
2019-03-28T16:56:30.329Z,33.50
2019-03-28T16:58:58.878Z,34.23
2019-03-28T17:01:27.339Z,29.60
2019-03-28T17:03:55.799Z,34.27
2019-03-28T17:06:24.268Z,33.53
2019-03-28T17:08:53.256Z,33.37
2019-03-28T17:11:21.684Z,33.40
2019-03-28T17:13:50.141Z,37.87
2019-03-28T17:16:18.657Z,32.60
2019-03-28T17:18:47.124Z,49.80
2019-03-28T17:21:15.675Z,33.13
2019-03-28T17:26:26.687Z,31.63
2019-03-28T17:28:55.149Z,29.43
2019-03-28T17:31:23.659Z,31.73
2019-03-28T17:33:52.162Z,31.90
2019-03-28T17:36:20.621Z,32.53
2019-03-28T17:38:49.727Z,39.10
2019-03-28T17:41:18.245Z,34.20
2019-03-28T17:43:46.829Z,32.83
2019-03-28T17:46:15.328Z,36.43
2019-03-28T17:48:43.771Z,38.40
2019-03-28T17:51:12.195Z,31.73
2019-03-28T17:53:40.770Z,33.40
2019-03-28T17:56:09.319Z,28.97
2019-03-28T17:58:37.792Z,28.37
2019-03-28T18:01:06.697Z,36.07
2019-03-28T18:03:35.144Z,28.20
2019-03-28T18:06:03.572Z,26.80
2019-03-28T18:08:32.101Z,31.27
2019-03-28T18:11:00.646Z,28.63
2019-03-28T18:13:29.146Z,29.87
2019-03-28T18:15:57.597Z,36.23
2019-03-28T18:18:26.025Z,31.60
2019-03-28T18:20:54.475Z,29.17
2019-03-28T18:23:23.684Z,29.63
2019-03-28T18:25:52.253Z,28.90
2019-03-28T18:28:20.700Z,26.50
2019-03-28T18:30:49.229Z,29.83
2019-03-28T18:33:17.679Z,26.67
2019-03-28T18:35:46.212Z,27.20
2019-03-28T18:38:14.757Z,37.93
2019-03-28T18:40:43.184Z,40.30
2019-03-28T18:43:11.631Z,36.73
2019-03-28T18:45:40.079Z,34.20
2019-03-28T18:48:09.137Z,38.90
2019-03-28T18:50:40.977Z,25.83
2019-03-28T18:53:08.303Z,31.40
2019-03-28T18:55:36.809Z,29.67
2019-03-28T18:58:05.756Z,30.47
2019-03-28T19:00:34.522Z,28.80
2019-03-28T19:03:03.016Z,29.33
2019-03-28T19:05:31.520Z,29.50
2019-03-28T19:07:59.931Z,35.57
2019-03-28T19:10:28.455Z,27.77
2019-03-28T19:12:56.921Z,30.60
2019-03-28T19:15:25.343Z,26.73
2019-03-28T19:17:53.793Z,28.30
2019-03-28T19:20:22.265Z,29.60
2019-03-28T19:22:50.688Z,28.20
2019-03-28T19:25:19.216Z,32.20
2019-03-28T19:27:47.733Z,27.67
2019-03-28T19:30:18.164Z,31.40
2019-03-28T19:32:46.625Z,27.30
2019-03-28T19:35:15.076Z,30.90
2019-03-28T19:37:44.891Z,27.70
2019-03-28T19:40:15.438Z,31.10
2019-03-28T19:42:44.093Z,26.33
2019-03-28T19:45:15.987Z,26.23
2019-03-28T19:47:44.416Z,27.80
2019-03-28T19:50:16.116Z,36.63
2019-03-28T19:52:44.626Z,29.07
2019-03-28T19:55:16.138Z,28.10
2019-03-28T19:57:44.606Z,32.43
2019-03-28T20:00:13.354Z,30.27
2019-03-28T20:02:41.880Z,30.37
2019-03-28T20:05:10.924Z,30.03
2019-03-28T20:07:39.544Z,39.00
2019-03-28T20:10:16.268Z,32.43
2019-03-28T20:12:38.994Z,34.23
2019-03-28T20:15:08.513Z,28.20
2019-03-28T20:17:37.113Z,32.53
2019-03-28T20:20:07.495Z,29.10
2019-03-28T20:22:36.323Z,30.37
2019-03-28T20:25:07.333Z,30.93
2019-03-28T20:27:36.008Z,32.07
2019-03-28T20:30:06.835Z,32.60
2019-03-28T20:32:35.305Z,33.43
2019-03-28T20:35:04.871Z,36.30
2019-03-28T20:37:33.444Z,30.87
2019-03-28T20:40:02.069Z,29.60
2019-03-28T20:42:30.847Z,36.67
2019-03-28T20:44:59.645Z,28.40
2019-03-28T20:47:28.373Z,32.23
2019-03-28T20:49:57.088Z,36.83
2019-03-28T20:52:25.539Z,26.50
2019-03-28T20:54:53.978Z,35.73
2019-03-28T20:57:22.839Z,31.80
2019-03-28T20:59:51.313Z,38.93
2019-03-28T21:02:19.767Z,36.83
2019-03-28T21:04:48.369Z,35.80
2019-03-28T21:07:19.688Z,29.73
2019-03-28T21:09:48.605Z,31.07
2019-03-28T21:12:17.735Z,38.63
2019-03-28T21:14:46.519Z,30.30
2019-03-28T21:17:15.107Z,31.10
2019-03-28T21:19:44.787Z,29.90
2019-03-28T21:22:13.347Z,32.63
2019-03-28T21:24:41.799Z,29.03
2019-03-28T21:27:10.218Z,33.03
2019-03-28T21:29:48.336Z,38.17
2019-03-28T21:32:08.895Z,33.90
2019-03-28T21:34:37.347Z,28.63
2019-03-28T21:37:06.587Z,28.10
2019-03-28T21:39:35.391Z,28.93
2019-03-28T21:42:06.970Z,32.73
2019-03-28T21:44:33.983Z,29.40
2019-03-28T21:47:02.431Z,32.10
2019-03-28T21:49:31.114Z,29.37
2019-03-28T21:51:59.606Z,36.80
2019-03-28T21:54:28.063Z,32.60
2019-03-28T21:56:56.583Z,31.50
2019-03-28T21:59:25.007Z,26.30
2019-03-28T22:01:53.495Z,30.23
2019-03-28T22:04:21.984Z,32.73
2019-03-28T22:06:50.448Z,26.00
2019-03-28T22:09:18.871Z,36.50
2019-03-28T22:11:47.310Z,34.27
2019-03-28T22:14:15.726Z,40.50
2019-03-28T22:16:44.175Z,38.07
2019-03-28T22:19:12.630Z,31.90
2019-03-28T22:21:41.177Z,32.40
2019-03-28T22:24:09.811Z,34.73
2019-03-28T22:26:38.384Z,39.03
2019-03-28T22:29:06.839Z,36.77
2019-03-28T22:31:35.255Z,43.63
2019-03-28T22:34:03.755Z,35.00
2019-03-28T22:36:32.180Z,39.93
2019-03-28T22:39:00.631Z,35.90
2019-03-28T22:41:29.078Z,36.23
2019-03-28T22:43:58.263Z,37.33
2019-03-28T22:46:27.791Z,30.70
2019-03-28T22:48:56.488Z,31.17
2019-03-28T22:51:25.347Z,31.40
2019-03-28T22:53:53.753Z,31.00
2019-03-28T22:56:23.499Z,34.03
2019-03-28T22:58:52.097Z,31.50
2019-03-28T23:01:20.674Z,32.73
2019-03-28T23:03:49.199Z,29.80
2019-03-28T23:06:17.628Z,39.10
2019-03-28T23:08:46.054Z,30.57
2019-03-28T23:11:14.587Z,38.00
2019-03-28T23:13:43.103Z,40.70
2019-03-28T23:16:11.704Z,38.77
2019-03-28T23:18:40.208Z,38.37
2019-03-28T23:21:08.767Z,37.67
2019-03-28T23:23:37.205Z,50.13
2019-03-28T23:26:05.790Z,52.67
2019-03-28T23:28:34.214Z,45.27
2019-03-28T23:31:02.641Z,39.77
2019-03-28T23:33:31.122Z,46.17
2019-03-28T23:35:59.603Z,41.13
2019-03-28T23:38:28.163Z,41.37
2019-03-28T23:40:56.594Z,38.90
2019-03-28T23:43:25.168Z,39.73
2019-03-28T23:45:53.625Z,40.27
2019-03-28T23:48:22.076Z,36.13
2019-03-28T23:50:50.559Z,33.40
2019-03-28T23:53:19.004Z,40.27
2019-03-28T23:55:47.432Z,39.57
2019-03-28T23:58:15.880Z,37.47
